Peotone Weather
Station Historical Data
 
Daily Summary for April 26, 2018 Units:  English    Metric   Both
« Previous Day
Next Day »
Daily Weekly Monthly Yearly Custom
  Current: High: Low: Average:
Temperature: 57.2 °F 57.2 °F 32.4 °F 38.2 °F
Dew Point: 38.2 °F 38.9 °F 29.0 °F 32.5 °F
Humidity: 49% 90% 49% 81%
Wind Speed: 3.4mph 9.2mph 0.0mph 2.1mph
Wind Gust: 3.4mph 11.5mph - -
WindENE - - SSW
Pressure: 29.99 in 30.01 in 29.97 in -
Precipitation: 0.00 in      
Historical Graphs
 
 
Tabular Data for April 26, 2018
Time Temperature Dew Point Pressure Wind Wind Speed Wind Gust Humidity Rainfall Rate (Hourly) solar Conditions
00:00 36.4 °F 32.3 °F 30.01 in Calm     85% 0.00 in 0.00 W/m2
00:05 35.9 °F 31.8 °F 30.01 in Calm     85% 0.00 in 0.00 W/m2
00:10 35.9 °F 31.8 °F 30.01 in Calm     85% 0.00 in 0.00 W/m2
00:15 35.9 °F 32.1 °F 30.01 in Calm     86% 0.00 in 0.00 W/m2
00:20 35.8 °F 32.0 °F 30.01 in NE 2.3 mph 2.3 mph 86% 0.00 in 0.00 W/m2
00:25 35.8 °F 32.0 °F 30.01 in NE 1.1 mph 3.4 mph 86% 0.00 in 0.00 W/m2
00:30 35.8 °F 31.7 °F 30.01 in NE 1.1 mph 2.3 mph 85% 0.00 in 0.00 W/m2
00:35 35.7 °F 31.9 °F 30.00 in Calm     86% 0.00 in 0.00 W/m2
00:40 35.7 °F 31.9 °F 30.00 in Calm     86% 0.00 in 0.00 W/m2
00:45 35.8 °F 32.0 °F 30.00 in Calm     86% 0.00 in 0.00 W/m2
00:50 35.3 °F 31.2 °F 30.00 in Calm     85% 0.00 in 0.00 W/m2
00:55 35.1 °F 31.3 °F 30.00 in Calm     86% 0.00 in 0.00 W/m2
01:00 35.0 °F 31.2 °F 30.00 in Calm     86% 0.00 in 0.00 W/m2
01:05 34.6 °F 30.9 °F 30.00 in Calm     86% 0.00 in 0.00 W/m2
01:10 34.4 °F 30.9 °F 30.00 in Calm     87% 0.00 in 0.00 W/m2
01:16 34.3 °F 30.8 °F 30.00 in Calm     87% 0.00 in 0.00 W/m2
01:20 34.5 °F 31.0 °F 30.00 in Calm     87% 0.00 in 0.00 W/m2
01:21 34.5 °F 31.0 °F 30.00 in Calm     87% 0.00 in 0.00 W/m2
01:25 34.7 °F 31.2 °F 29.99 in Calm     87% 0.00 in 0.00 W/m2
01:26 34.7 °F 31.2 °F 30.00 in Calm     87% 0.00 in 0.00 W/m2
01:30 34.6 °F 30.9 °F 30.00 in NE 2.3 mph 4.6 mph 86% 0.00 in 0.00 W/m2
01:31 34.6 °F 30.9 °F 29.99 in NE 2.3 mph 3.4 mph 86% 0.00 in 0.00 W/m2
01:35 34.5 °F 30.8 °F 29.99 in NE 2.3 mph 3.5 mph 86% 0.00 in 0.00 W/m2
01:36 34.5 °F 30.8 °F 29.99 in NE 3.4 mph 3.4 mph 86% 0.00 in 0.00 W/m2
01:40 34.2 °F 30.5 °F 29.99 in NE 2.3 mph 4.6 mph 86% 0.00 in 0.00 W/m2
01:41 34.1 °F 30.4 °F 29.99 in NE 2.3 mph 3.4 mph 86% 0.00 in 0.00 W/m2
01:45 33.9 °F 30.2 °F 29.99 in Calm   3.5 mph 86% 0.00 in 0.00 W/m2
01:46 34.0 °F 30.5 °F 29.99 in Calm   2.3 mph 87% 0.00 in 0.00 W/m2
01:50 34.0 °F 30.5 °F 29.99 in NE 2.3 mph 2.3 mph 87% 0.00 in 0.00 W/m2
01:51 34.0 °F 30.5 °F 29.98 in NE 1.1 mph 3.4 mph 87% 0.00 in 0.00 W/m2
01:55 34.2 °F 30.7 °F 29.98 in NE 1.1 mph 3.5 mph 87% 0.00 in 0.00 W/m2
01:56 34.3 °F 30.8 °F 29.98 in NE 2.3 mph 3.4 mph 87% 0.00 in 0.00 W/m2
02:00 34.5 °F 30.8 °F 29.98 in NE 3.5 mph 3.5 mph 86% 0.00 in 0.00 W/m2
02:01 34.5 °F 30.8 °F 29.98 in NE 3.4 mph 3.4 mph 86% 0.00 in 0.00 W/m2
02:05 34.6 °F 30.9 °F 29.98 in NE 2.3 mph 4.6 mph 86% 0.00 in 0.00 W/m2
02:06 34.6 °F 30.9 °F 29.98 in NE 3.4 mph 3.4 mph 86% 0.00 in 0.00 W/m2
02:10 34.7 °F 31.0 °F 29.98 in NE 2.3 mph 3.5 mph 86% 0.00 in 0.00 W/m2
02:12 34.7 °F 31.0 °F 29.98 in NE 2.3 mph 3.4 mph 86% 0.00 in 0.00 W/m2
02:15 34.6 °F 30.9 °F 29.98 in NE 4.6 mph 4.6 mph 86% 0.00 in 0.00 W/m2
02:17 34.6 °F 30.9 °F 29.98 in NE 4.6 mph 4.6 mph 86% 0.00 in 0.00 W/m2
02:20 34.5 °F 30.8 °F 29.98 in WNW 3.5 mph 5.8 mph 86% 0.00 in 0.00 W/m2
02:22 34.5 °F 30.8 °F 29.98 in WNW 3.4 mph 4.6 mph 86% 0.00 in 0.00 W/m2
02:27 34.6 °F 30.9 °F 29.98 in WNW 3.4 mph 3.4 mph 86% 0.00 in 0.00 W/m2
02:30 34.6 °F 30.9 °F 29.98 in WNW 2.3 mph 3.5 mph 86% 0.00 in 0.00 W/m2
02:32 34.7 °F 31.0 °F 29.98 in WNW 3.4 mph 3.4 mph 86% 0.00 in 0.00 W/m2
02:35 34.7 °F 31.0 °F 29.98 in WNW 2.3 mph 4.6 mph 86% 0.00 in 0.00 W/m2
02:37 34.7 °F 31.0 °F 29.98 in WNW 3.4 mph 3.4 mph 86% 0.00 in 0.00 W/m2
02:40 34.7 °F 31.0 °F 29.98 in WNW 2.3 mph 4.6 mph 86% 0.00 in 0.00 W/m2
02:42 34.7 °F 31.0 °F 29.99 in NW 2.3 mph 5.8 mph 86% 0.00 in 0.00 W/m2
02:45 34.9 °F 31.1 °F 29.99 in NW 3.5 mph 5.8 mph 86% 0.00 in 0.00 W/m2
02:47 35.0 °F 31.2 °F 29.99 in NW 1.1 mph 3.4 mph 86% 0.00 in 0.00 W/m2
02:52 35.3 °F 31.2 °F 29.99 in WNW 2.3 mph 4.6 mph 85% 0.00 in 0.00 W/m2
02:55 35.3 °F 31.2 °F 29.98 in WNW 2.3 mph 4.6 mph 85% 0.00 in 0.00 W/m2
02:57 35.4 °F 31.4 °F 29.98 in WNW 2.3 mph 3.4 mph 85% 0.00 in 0.00 W/m2
03:03 35.6 °F 31.5 °F 29.98 in WNW 2.3 mph 2.3 mph 85% 0.00 in 0.00 W/m2
03:08 35.8 °F 31.5 °F 29.98 in WNW 2.3 mph 3.4 mph 84% 0.00 in 0.00 W/m2
03:13 35.1 °F 30.8 °F 29.98 in Calm   3.4 mph 84% 0.00 in 0.00 W/m2
03:18 34.9 °F 31.1 °F 29.98 in WNW 2.3 mph 3.4 mph 86% 0.00 in 0.00 W/m2
03:23 35.0 °F 31.0 °F 29.98 in West 2.3 mph 4.6 mph 85% 0.00 in 0.00 W/m2
03:28 34.7 °F 30.7 °F 29.98 in West 1.1 mph 5.8 mph 85% 0.00 in 0.00 W/m2
03:33 34.3 °F 30.6 °F 29.99 in West 1.1 mph 3.4 mph 86% 0.00 in 0.00 W/m2
03:38 34.2 °F 30.5 °F 29.98 in West 1.1 mph 3.4 mph 86% 0.00 in 0.00 W/m2
03:43 34.0 °F 30.3 °F 29.98 in WNW 2.3 mph 4.6 mph 86% 0.00 in 0.00 W/m2
03:48 33.6 °F 29.9 °F 29.99 in WNW 2.3 mph 3.4 mph 86% 0.00 in 0.00 W/m2
03:54 33.4 °F 30.0 °F 29.99 in WNW 3.4 mph 3.4 mph 87% 0.00 in 0.00 W/m2
03:59 33.3 °F 29.9 °F 29.99 in WNW 2.3 mph 4.6 mph 87% 0.00 in 0.00 W/m2
04:04 32.9 °F 29.5 °F 29.99 in WNW 2.3 mph 4.6 mph 87% 0.00 in 0.00 W/m2
04:09 32.6 °F 29.2 °F 29.98 in WNW 3.4 mph 4.6 mph 87% 0.00 in 0.00 W/m2
04:14 32.4 °F 29.0 °F 29.98 in WNW 2.3 mph 5.8 mph 87% 0.00 in 0.00 W/m2
04:19 32.4 °F 29.2 °F 29.98 in WNW 2.3 mph 4.6 mph 88% 0.00 in 0.00 W/m2
04:24 33.1 °F 30.2 °F 29.98 in WNW 3.4 mph 5.8 mph 89% 0.00 in 0.00 W/m2
04:29 33.2 °F 30.0 °F 29.98 in WNW 3.4 mph 4.6 mph 88% 0.00 in 0.00 W/m2
04:34 33.1 °F 29.9 °F 29.98 in WNW 2.3 mph 5.8 mph 88% 0.00 in 0.00 W/m2
04:39 33.0 °F 29.8 °F 29.98 in WNW 1.1 mph 4.6 mph 88% 0.00 in 0.00 W/m2
04:44 32.9 °F 29.7 °F 29.98 in WNW 2.3 mph 4.6 mph 88% 0.00 in 0.00 W/m2
04:50 32.7 °F 29.5 °F 29.98 in Calm   2.3 mph 88% 0.00 in 0.00 W/m2
04:55 32.6 °F 29.5 °F 29.97 in Calm   1.1 mph 88% 0.00 in 0.00 W/m2
05:00 32.7 °F 29.8 °F 29.97 in Calm   1.1 mph 89% 0.00 in 0.00 W/m2
05:05 32.8 °F 29.9 °F 29.97 in WNW 1.1 mph 2.3 mph 89% 0.00 in 0.00 W/m2
05:10 32.7 °F 29.5 °F 29.97 in Calm   2.3 mph 88% 0.00 in 0.00 W/m2
05:15 32.5 °F 29.6 °F 29.97 in WNW 3.4 mph 3.4 mph 89% 0.00 in 0.00 W/m2
05:20 32.5 °F 29.6 °F 29.97 in NW 3.4 mph 4.6 mph 89% 0.00 in 0.00 W/m2
05:25 32.5 °F 29.6 °F 29.97 in NW 3.4 mph 3.4 mph 89% 0.00 in 0.00 W/m2
05:30 32.5 °F 29.6 °F 29.97 in NW 4.6 mph 4.6 mph 89% 0.00 in 0.00 W/m2
05:36 32.9 °F 30.3 °F 29.97 in NNW 3.4 mph 4.6 mph 90% 0.00 in 0.00 W/m2
05:41 33.2 °F 30.6 °F 29.97 in NW 3.4 mph 4.6 mph 90% 0.00 in 0.00 W/m2
05:46 33.2 °F 30.3 °F 29.97 in NW 1.1 mph 3.4 mph 89% 0.00 in 0.00 W/m2
05:51 32.8 °F 29.9 °F 29.97 in NW 2.3 mph 2.3 mph 89% 0.00 in 0.00 W/m2
05:56 32.5 °F 29.6 °F 29.97 in NW 2.3 mph 2.3 mph 89% 0.00 in 5.00 W/m2
06:01 32.5 °F 29.6 °F 29.97 in NW 2.3 mph 2.3 mph 89% 0.00 in 7.00 W/m2
06:06 32.6 °F 30.0 °F 29.97 in NW 2.3 mph 3.4 mph 90% 0.00 in 11.00 W/m2
06:11 32.8 °F 30.2 °F 29.97 in NW 1.1 mph 3.4 mph 90% 0.00 in 16.00 W/m2
06:16 32.9 °F 30.3 °F 29.97 in NW 2.3 mph 2.3 mph 90% 0.00 in 28.00 W/m2
06:21 33.1 °F 30.5 °F 29.97 in NW 1.1 mph 3.4 mph 90% 0.00 in 33.00 W/m2
06:26 33.2 °F 30.6 °F 29.97 in NW 1.1 mph 2.3 mph 90% 0.00 in 56.00 W/m2
06:32 33.6 °F 30.7 °F 29.97 in Calm   3.4 mph 89% 0.00 in 70.00 W/m2
06:37 34.1 °F 31.2 °F 29.98 in Calm   3.4 mph 89% 0.00 in 79.00 W/m2
06:42 34.4 °F 31.5 °F 29.98 in NW 1.1 mph 3.4 mph 89% 0.00 in 102.00 W/m2
06:47 34.8 °F 31.6 °F 29.98 in NW 2.3 mph 4.6 mph 88% 0.00 in 118.00 W/m2
06:52 35.3 °F 32.1 °F 29.98 in NW 3.4 mph 5.8 mph 88% 0.00 in 132.00 W/m2
06:57 36.0 °F 32.5 °F 29.98 in NW 3.4 mph 5.8 mph 87% 0.00 in 148.00 W/m2
07:02 36.6 °F 32.8 °F 29.98 in NW 1.1 mph 3.4 mph 86% 0.00 in 160.00 W/m2
07:07 37.2 °F 33.1 °F 29.98 in NW 2.3 mph 5.8 mph 85% 0.00 in 178.00 W/m2
07:12 37.7 °F 33.3 °F 29.98 in NNW 4.6 mph 4.6 mph 84% 0.00 in 192.00 W/m2
07:17 38.3 °F 33.6 °F 29.98 in NNW 4.6 mph 4.6 mph 83% 0.00 in 207.00 W/m2
07:23 39.1 °F 34.4 °F 29.98 in NNW 3.4 mph 4.6 mph 83% 0.00 in 225.00 W/m2
07:28 39.8 °F 35.1 °F 29.98 in NNW 3.4 mph 5.8 mph 83% 0.00 in 243.00 W/m2
07:33 40.7 °F 35.3 °F 29.98 in NNW 3.4 mph 5.8 mph 81% 0.00 in 260.00 W/m2
07:38 41.2 °F 35.5 °F 29.99 in NNW 4.6 mph 6.9 mph 80% 0.00 in 278.00 W/m2
07:43 42.0 °F 36.0 °F 29.99 in NNW 4.6 mph 5.8 mph 79% 0.00 in 294.00 W/m2
07:48 42.8 °F 36.4 °F 29.99 in NNW 4.6 mph 8.1 mph 78% 0.00 in 313.00 W/m2
07:53 43.6 °F 36.9 °F 29.99 in Calm   5.8 mph 77% 0.00 in 330.00 W/m2
07:58 44.2 °F 37.1 °F 29.99 in North 3.4 mph 5.8 mph 76% 0.00 in 334.00 W/m2
08:03 45.1 °F 37.0 °F 29.99 in North 2.3 mph 4.6 mph 73% 0.00 in 348.00 W/m2
08:08 45.4 °F 36.9 °F 29.99 in North 2.3 mph 4.6 mph 72% 0.00 in 334.00 W/m2
08:13 45.9 °F 37.0 °F 29.99 in North 1.1 mph 5.8 mph 71% 0.00 in 396.00 W/m2
08:18 46.7 °F 37.8 °F 29.99 in North 2.3 mph 3.4 mph 71% 0.00 in 420.00 W/m2
08:24 47.0 °F 37.4 °F 29.99 in NNE 3.4 mph 5.8 mph 69% 0.00 in 422.00 W/m2
08:29 47.6 °F 37.2 °F 29.99 in NNE 3.4 mph 6.9 mph 67% 0.00 in 452.00 W/m2
08:34 48.2 °F 37.4 °F 29.99 in NNE 4.6 mph 6.9 mph 66% 0.00 in 469.00 W/m2
08:39 48.7 °F 38.2 °F 29.99 in NNE 2.3 mph 5.8 mph 67% 0.00 in 485.00 W/m2
08:44 49.8 °F 37.3 °F 29.99 in NE 3.4 mph 6.9 mph 62% 0.00 in 504.00 W/m2
08:49 49.9 °F 37.0 °F 29.99 in NE 2.3 mph 9.2 mph 61% 0.00 in 520.00 W/m2
08:54 50.4 °F 37.9 °F 29.99 in NE 2.3 mph 8.1 mph 62% 0.00 in 536.00 W/m2
08:59 51.0 °F 38.0 °F 29.99 in Calm   5.8 mph 61% 0.00 in 548.00 W/m2
09:04 51.4 °F 37.1 °F 29.99 in ENE 3.4 mph 10.3 mph 58% 0.00 in 566.00 W/m2
09:09 51.6 °F 37.3 °F 29.99 in Calm   10.3 mph 58% 0.00 in 584.00 W/m2
09:14 52.3 °F 38.8 °F 29.99 in ENE 1.1 mph 8.1 mph 60% 0.00 in 598.00 W/m2
09:19 53.0 °F 38.2 °F 29.99 in NE 2.3 mph 6.9 mph 57% 0.00 in 613.00 W/m2
09:25 53.3 °F 38.9 °F 29.99 in NE 2.3 mph 6.9 mph 58% 0.00 in 629.00 W/m2
09:30 53.6 °F 37.4 °F 29.99 in East 5.8 mph 8.1 mph 54% 0.00 in 643.00 W/m2
09:35 53.5 °F 38.2 °F 29.99 in East 1.1 mph 6.9 mph 56% 0.00 in 659.00 W/m2
09:40 53.9 °F 38.6 °F 29.99 in Calm   8.1 mph 56% 0.00 in 670.00 W/m2
09:45 54.2 °F 37.9 °F 30.00 in ENE 1.1 mph 8.1 mph 54% 0.00 in 682.00 W/m2
09:50 55.1 °F 38.3 °F 30.00 in ESE 5.8 mph 5.8 mph 53% 0.00 in 698.00 W/m2
09:55 55.4 °F 37.6 °F 30.00 in East 3.4 mph 11.5 mph 51% 0.00 in 710.00 W/m2
10:00 55.2 °F 37.9 °F 30.00 in East 9.2 mph 9.2 mph 52% 0.00 in 728.00 W/m2
10:05 55.4 °F 37.1 °F 30.00 in ENE 1.1 mph 9.2 mph 50% 0.00 in 735.00 W/m2
10:10 56.2 °F 38.8 °F 30.00 in Calm   8.1 mph 52% 0.00 in 754.00 W/m2
10:15 56.5 °F 38.1 °F 29.99 in ESE 8.1 mph 9.2 mph 50% 0.00 in 763.00 W/m2
10:20 57.2 °F 38.2 °F 29.99 in ENE 3.4 mph 3.4 mph 49% 0.00 in 775.00 W/m2
Juneau County Weather
Compliments of Weather Underground - 2 mb